Time;durP1;ratioP1;P1;durP2;ratioP2;P2;SDS_P1;SDS_P2;PMS_P1;PMS_P2;Temp;Humidity;BMP_temperature;BMP_pressure;BME280_temperature;BME280_humidity;BME280_pressure;Samples;Min_cycle;Max_cycle;Signal;HPM_P1;HPM_P2
2022/10/29 00:01:49;;;;;;;;;;;;;;;;;;5016688;28;19964;-78
2022/10/29 00:04:15;;;;;;;;;;;;;;;;;;5034644;28;19909;-78
2022/10/29 00:06:41;;;;;;;;;;;;;;;;;;5017049;28;19916;-76
2022/10/29 00:09:07;;;;;;;;;;;;;;;;;;5034646;28;19955;-77
2022/10/29 00:11:33;;;;;;;;;;;;;;;;;;5016788;28;19916;-78
2022/10/29 00:13:59;;;;;;;;;;;;;;;;;;5034372;28;20028;-77
2022/10/29 00:16:25;;;;;;;;;;;;;;;;;;5016350;28;19921;-76
2022/10/29 00:18:51;;;;;;;;;;;;;;;;;;5034809;28;19909;-76
2022/10/29 00:21:16;;;;;;;;;;;;;;;;;;5018414;28;19909;-77
2022/10/29 00:23:42;;;;;;;;;;;;;;;;;;5038073;28;19909;-78
2022/10/29 00:26:08;;;;;;;;;;;;;;;;;;5037939;28;19917;-78
2022/10/29 00:28:34;;;;;;;;;;;;;;;;;;5019877;28;20440;-78
2022/10/29 00:31:00;;;;;;;;;;;;;;;;;;5020288;28;19959;-78
2022/10/29 00:33:26;;;;;;;;;;;;;;;;;;5038178;28;19956;-78
2022/10/29 00:35:52;;;;;;;;;;;;;;;;;;5037710;28;19915;-78
2022/10/29 00:38:18;;;;;;;;;;;;;;;;;;5019733;28;19963;-78
2022/10/29 00:40:43;;;;;;;;;;;;;;;;;;5019595;28;19917;-78
2022/10/29 00:43:09;;;;;;;;;;;;;;;;;;5019667;28;19905;-77
2022/10/29 00:45:35;;;;;;;;;;;;;;;;;;5019443;28;20011;-77
2022/10/29 00:48:01;;;;;;;;;;;;;;;;;;5019352;28;19905;-78
2022/10/29 00:50:27;;;;;;;;;;;;;;;;;;5019239;28;19909;-77
2022/10/29 00:52:53;;;;;;;;;;;;;;;;;;5019552;28;19913;-77
2022/10/29 00:55:19;;;;;;;;;;;;;;;;;;5037311;28;20004;-78
2022/10/29 00:57:47;;;;;;;;;;;;;;;;;;5036315;28;19920;-78
2022/10/29 01:00:13;;;;;;;;;;;;;;;;;;5017541;28;19997;-78
2022/10/29 01:02:39;;;;;;;;;;;;;;;;;;5035498;28;19917;-78
2022/10/29 01:05:05;;;;;;;;;;;;;;;;;;5035348;28;19913;-78
2022/10/29 01:07:31;;;;;;;;;;;;;;;;;;5018085;28;19913;-77
2022/10/29 01:09:57;;;;;;;;;;;;;;;;;;5036975;28;19916;-78
2022/10/29 01:12:22;;;;;;;;;;;;;;;;;;5036560;28;19949;-78
2022/10/29 01:14:48;;;;;;;;;;;;;;;;;;5036149;28;20409;-77
2022/10/29 01:17:14;;;;;;;;;;;;;;;;;;5037179;28;19967;-78
2022/10/29 01:19:40;;;;;;;;;;;;;;;;;;5018561;28;20413;-77
2022/10/29 01:22:06;;;;;;;;;;;;;;;;;;5018498;28;19917;-78
2022/10/29 01:24:32;;;;;;;;;;;;;;;;;;5018622;28;20018;-78
2022/10/29 01:26:58;;;;;;;;;;;;;;;;;;5036923;28;19909;-79
2022/10/29 01:29:24;;;;;;;;;;;;;;;;;;5036707;28;19988;-78
2022/10/29 01:31:49;;;;;;;;;;;;;;;;;;5018169;28;19944;-77
2022/10/29 01:34:15;;;;;;;;;;;;;;;;;;5017703;28;20280;-78
2022/10/29 01:36:41;;;;;;;;;;;;;;;;;;5036175;28;19916;-78
2022/10/29 01:39:07;;;;;;;;;;;;;;;;;;5036361;28;20408;-78
2022/10/29 01:41:33;;;;;;;;;;;;;;;;;;5036397;28;19932;-77
2022/10/29 01:44:00;;;;;;;;;;;;;;;;;;5018551;28;19959;-77
2022/10/29 01:46:26;;;;;;;;;;;;;;;;;;5018383;28;20381;-77
2022/10/29 01:48:52;;;;;;;;;;;;;;;;;;5018303;28;19931;-77
2022/10/29 01:51:18;;;;;;;;;;;;;;;;;;5018284;28;19909;-78
2022/10/29 01:53:44;;;;;;;;;;;;;;;;;;5036200;28;19964;-77
2022/10/29 01:56:09;;;;;;;;;;;;;;;;;;5035758;28;19909;-77
2022/10/29 01:58:36;;;;;;;;;;;;;;;;;;5035787;28;20006;-78
2022/10/29 02:01:02;;;;;;;;;;;;;;;;;;5035975;28;19994;-78
2022/10/29 02:03:28;;;;;;;;;;;;;;;;;;5035630;28;19906;-78
2022/10/29 02:05:54;;;;;;;;;;;;;;;;;;5035582;28;19909;-78
2022/10/29 02:08:20;;;;;;;;;;;;;;;;;;5035087;28;19991;-78
2022/10/29 02:10:46;;;;;;;;;;;;;;;;;;5034897;28;19949;-77
2022/10/29 02:13:12;;;;;;;;;;;;;;;;;;5035464;28;20374;-76
2022/10/29 02:15:38;;;;;;;;;;;;;;;;;;5080430;22;19931;-75
2022/10/29 02:18:04;;;;;;;;;;;;;;;;;;5071919;28;19962;-77
2022/10/29 02:20:30;;;;;;;;;;;;;;;;;;5074378;28;19908;-76
2022/10/29 02:22:56;;;;;;;;;;;;;;;;;;5074770;28;20322;-76
2022/10/29 02:25:21;;;;;;;;;;;;;;;;;;5073585;28;19951;-76
2022/10/29 02:27:47;;;;;;;;;;;;;;;;;;5074089;28;19991;-78
2022/10/29 02:30:13;;;;;;;;;;;;;;;;;;5073023;28;20392;-75
2022/10/29 02:32:39;;;;;;;;;;;;;;;;;;5072419;28;19927;-75
2022/10/29 02:35:05;;;;;;;;;;;;;;;;;;5072298;28;19912;-76
2022/10/29 02:37:31;;;;;;;;;;;;;;;;;;5073716;28;19912;-75
2022/10/29 02:39:57;;;;;;;;;;;;;;;;;;5072087;28;19950;-76
2022/10/29 02:42:23;;;;;;;;;;;;;;;;;;5073416;28;19917;-79
2022/10/29 02:44:48;;;;;;;;;;;;;;;;;;5071583;28;19909;-76
2022/10/29 02:47:14;;;;;;;;;;;;;;;;;;5073197;28;19915;-76
2022/10/29 02:49:40;;;;;;;;;;;;;;;;;;5071958;28;19916;-76
2022/10/29 02:52:06;;;;;;;;;;;;;;;;;;5071810;28;20060;-76
2022/10/29 02:54:32;;;;;;;;;;;;;;;;;;5073065;28;19923;-75
2022/10/29 02:56:58;;;;;;;;;;;;;;;;;;5072932;28;19948;-76
2022/10/29 02:59:24;;;;;;;;;;;;;;;;;;5071722;28;19908;-75
2022/10/29 03:01:50;;;;;;;;;;;;;;;;;;5072292;28;19909;-76
2022/10/29 03:04:16;;;;;;;;;;;;;;;;;;5071822;28;19908;-75
2022/10/29 03:06:41;;;;;;;;;;;;;;;;;;5071434;28;19912;-76
2022/10/29 03:09:07;;;;;;;;;;;;;;;;;;5071723;28;19916;-76
2022/10/29 03:11:33;;;;;;;;;;;;;;;;;;5071622;28;20411;-76
2022/10/29 03:13:59;;;;;;;;;;;;;;;;;;5073209;28;19959;-76
2022/10/29 03:16:25;;;;;;;;;;;;;;;;;;5073885;28;19917;-77
2022/10/29 03:18:51;;;;;;;;;;;;;;;;;;5071450;28;19916;-76
2022/10/29 03:21:17;;;;;;;;;;;;;;;;;;5071866;28;19967;-76
2022/10/29 03:23:43;;;;;;;;;;;;;;;;;;5071490;28;19919;-76
2022/10/29 03:26:09;;;;;;;;;;;;;;;;;;5071355;28;20369;-75
2022/10/29 03:28:35;;;;;;;;;;;;;;;;;;5072962;28;19909;-76
2022/10/29 03:31:01;;;;;;;;;;;;;;;;;;5072668;28;19996;-76
2022/10/29 03:33:27;;;;;;;;;;;;;;;;;;5072715;28;20399;-76
2022/10/29 03:35:53;;;;;;;;;;;;;;;;;;5071054;28;20443;-76
2022/10/29 03:38:19;;;;;;;;;;;;;;;;;;5072523;28;19909;-76
2022/10/29 03:40:45;;;;;;;;;;;;;;;;;;5070963;28;20281;-76
2022/10/29 03:43:11;;;;;;;;;;;;;;;;;;5072780;28;19908;-76
2022/10/29 03:45:36;;;;;;;;;;;;;;;;;;5071192;28;19909;-76
2022/10/29 03:48:02;;;;;;;;;;;;;;;;;;5072434;28;20253;-76
2022/10/29 03:50:28;;;;;;;;;;;;;;;;;;5072664;28;19947;-76
2022/10/29 03:52:54;;;;;;;;;;;;;;;;;;5072221;28;20338;-76
2022/10/29 03:55:20;;;;;;;;;;;;;;;;;;5072396;28;19915;-76
2022/10/29 03:57:46;;;;;;;;;;;;;;;;;;5076298;28;20380;-75
2022/10/29 04:00:12;;;;;;;;;;;;;;;;;;5076545;28;20022;-76
2022/10/29 04:02:38;;;;;;;;;;;;;;;;;;5076245;28;20283;-76
2022/10/29 04:05:03;;;;;;;;;;;;;;;;;;5074747;28;20284;-75
2022/10/29 04:07:29;;;;;;;;;;;;;;;;;;5075983;28;19908;-76
2022/10/29 04:09:55;;;;;;;;;;;;;;;;;;5079611;28;20001;-75
2022/10/29 04:12:21;;;;;;;;;;;;;;;;;;5096638;28;20045;-76
2022/10/29 04:14:47;;;;;;;;;;;;;;;;;;5095931;28;19961;-76
2022/10/29 04:17:13;;;;;;;;;;;;;;;;;;5096212;28;19912;-77
2022/10/29 04:19:39;;;;;;;;;;;;;;;;;;5094968;28;19916;-76
2022/10/29 04:22:05;;;;;;;;;;;;;;;;;;5096099;28;19908;-76
2022/10/29 04:24:31;;;;;;;;;;;;;;;;;;5095679;28;20257;-76
2022/10/29 04:26:57;;;;;;;;;;;;;;;;;;5095944;28;19947;-76
2022/10/29 04:29:23;;;;;;;;;;;;;;;;;;5095719;28;19912;-75
2022/10/29 04:31:48;;;;;;;;;;;;;;;;;;5095905;28;19912;-76
2022/10/29 04:34:14;;;;;;;;;;;;;;;;;;5095743;28;20023;-75
2022/10/29 04:36:40;;;;;;;;;;;;;;;;;;5095940;28;19915;-76
2022/10/29 04:39:07;;;;;;;;;;;;;;;;;;5095972;28;19916;-76
2022/10/29 04:41:33;;;;;;;;;;;;;;;;;;5094286;28;20659;-76
2022/10/29 04:43:59;;;;;;;;;;;;;;;;;;5094706;28;20006;-75
2022/10/29 04:46:25;;;;;;;;;;;;;;;;;;5094707;28;19955;-76
2022/10/29 04:48:51;;;;;;;;;;;;;;;;;;5095529;28;19908;-75
2022/10/29 04:51:17;;;;;;;;;;;;;;;;;;5095467;28;19914;-76
2022/10/29 04:53:43;;;;;;;;;;;;;;;;;;5095633;28;19916;-77
2022/10/29 04:56:09;;;;;;;;;;;;;;;;;;5095763;28;19915;-76
2022/10/29 04:58:34;;;;;;;;;;;;;;;;;;5095285;28;19908;-76
2022/10/29 05:01:01;;;;;;;;;;;;;;;;;;5095393;28;19962;-77
2022/10/29 05:03:26;;;;;;;;;;;;;;;;;;5095571;28;19908;-76
2022/10/29 05:05:52;;;;;;;;;;;;;;;;;;5095812;28;20288;-76
2022/10/29 05:08:19;;;;;;;;;;;;;;;;;;5096204;28;19908;-77
2022/10/29 05:10:44;;;;;;;;;;;;;;;;;;5094773;28;19948;-76
2022/10/29 05:13:10;;;;;;;;;;;;;;;;;;5096040;28;19965;-76
2022/10/29 05:15:36;;;;;;;;;;;;;;;;;;5096115;28;20358;-77
2022/10/29 05:18:02;;;;;;;;;;;;;;;;;;5097814;28;20002;-76
2022/10/29 05:20:28;;;;;;;;;;;;;;;;;;5094864;28;19908;-76
2022/10/29 05:22:54;;;;;;;;;;;;;;;;;;5095070;28;19934;-77
2022/10/29 05:25:20;;;;;;;;;;;;;;;;;;5094553;28;19909;-76
2022/10/29 05:27:46;;;;;;;;;;;;;;;;;;5093312;28;19909;-75
2022/10/29 05:30:12;;;;;;;;;;;;;;;;;;5095055;28;19915;-76
2022/10/29 05:32:37;;;;;;;;;;;;;;;;;;5094853;28;20350;-75
2022/10/29 05:35:03;;;;;;;;;;;;;;;;;;5094869;28;19908;-76
2022/10/29 05:37:29;;;;;;;;;;;;;;;;;;5094976;28;19908;-76
2022/10/29 05:39:55;;;;;;;;;;;;;;;;;;5093462;28;19908;-75
2022/10/29 05:42:21;;;;;;;;;;;;;;;;;;5094569;28;19912;-76
2022/10/29 05:44:47;;;;;;;;;;;;;;;;;;5094883;28;20283;-76
2022/10/29 05:47:13;;;;;;;;;;;;;;;;;;5095187;28;19991;-76
2022/10/29 05:49:39;;;;;;;;;;;;;;;;;;5094193;28;20257;-76
2022/10/29 05:52:04;;;;;;;;;;;;;;;;;;5095445;28;19912;-76
2022/10/29 05:54:30;;;;;;;;;;;;;;;;;;5094074;28;19916;-76
2022/10/29 05:56:56;;;;;;;;;;;;;;;;;;5094427;28;19915;-76
2022/10/29 05:59:22;;;;;;;;;;;;;;;;;;5094221;28;19908;-76
2022/10/29 06:01:48;;;;;;;;;;;;;;;;;;5094284;28;20394;-76
2022/10/29 06:04:14;;;;;;;;;;;;;;;;;;5093890;28;19955;-75
2022/10/29 06:06:40;;;;;;;;;;;;;;;;;;5094112;28;19940;-76
2022/10/29 06:09:06;;;;;;;;;;;;;;;;;;5093187;28;20375;-75
2022/10/29 06:11:32;;;;;;;;;;;;;;;;;;5094137;28;19998;-76
2022/10/29 06:13:58;;;;;;;;;;;;;;;;;;5094012;28;19916;-76
2022/10/29 06:16:24;;;;;;;;;;;;;;;;;;5092283;28;20380;-76
2022/10/29 06:18:50;;;;;;;;;;;;;;;;;;5092015;28;19915;-76
2022/10/29 06:21:16;;;;;;;;;;;;;;;;;;5093957;28;20444;-76
2022/10/29 06:23:41;;;;;;;;;;;;;;;;;;5092712;28;19908;-75
2022/10/29 06:26:07;;;;;;;;;;;;;;;;;;5092532;28;19908;-76
2022/10/29 06:28:33;;;;;;;;;;;;;;;;;;5092393;28;19947;-76
2022/10/29 06:30:59;;;;;;;;;;;;;;;;;;5092130;28;19908;-76
2022/10/29 06:33:25;;;;;;;;;;;;;;;;;;5093325;28;19912;-77
2022/10/29 06:35:51;;;;;;;;;;;;;;;;;;5093285;28;19908;-75
2022/10/29 06:38:17;;;;;;;;;;;;;;;;;;5092069;28;20006;-75
2022/10/29 06:40:43;;;;;;;;;;;;;;;;;;5093352;28;19918;-75
2022/10/29 06:43:08;;;;;;;;;;;;;;;;;;5093293;28;19931;-74
2022/10/29 06:45:34;;;;;;;;;;;;;;;;;;5091896;28;19916;-75
2022/10/29 06:48:01;;;;;;;;;;;;;;;;;;5093102;28;19916;-75
2022/10/29 06:50:26;;;;;;;;;;;;;;;;;;5093455;28;19995;-76
2022/10/29 06:52:52;;;;;;;;;;;;;;;;;;5091911;28;20015;-75
2022/10/29 06:55:18;;;;;;;;;;;;;;;;;;5093053;28;19909;-76
2022/10/29 06:57:44;;;;;;;;;;;;;;;;;;5092979;28;20368;-76
2022/10/29 07:00:10;;;;;;;;;;;;;;;;;;5092033;28;19962;-76
2022/10/29 07:02:36;;;;;;;;;;;;;;;;;;5091877;28;20375;-76
2022/10/29 07:05:02;;;;;;;;;;;;;;;;;;5093700;28;20003;-76
2022/10/29 07:07:28;;;;;;;;;;;;;;;;;;5092851;28;20418;-75
2022/10/29 07:09:53;;;;;;;;;;;;;;;;;;5091726;28;19909;-76
2022/10/29 07:12:19;;;;;;;;;;;;;;;;;;5093255;28;20364;-76
2022/10/29 07:14:45;;;;;;;;;;;;;;;;;;5092682;28;19920;-76
2022/10/29 07:17:11;;;;;;;;;;;;;;;;;;5093153;28;20364;-75
2022/10/29 07:19:37;;;;;;;;;;;;;;;;;;5091875;28;19917;-76
2022/10/29 07:22:03;;;;;;;;;;;;;;;;;;5092997;28;19919;-76
2022/10/29 07:24:29;;;;;;;;;;;;;;;;;;5092778;28;19912;-76
2022/10/29 07:26:55;;;;;;;;;;;;;;;;;;5092996;28;19916;-78
2022/10/29 07:29:20;;;;;;;;;;;;;;;;;;5093114;28;19977;-76
2022/10/29 07:31:46;;;;;;;;;;;;;;;;;;5096143;28;19915;-75
2022/10/29 07:34:12;;;;;;;;;;;;;;;;;;5095431;28;20014;-76
2022/10/29 07:36:38;;;;;;;;;;;;;;;;;;5096696;28;20272;-76
2022/10/29 07:39:06;;;;;;;;;;;;;;;;;;5096920;28;19904;-75
2022/10/29 07:41:32;;;;;;;;;;;;;;;;;;5096971;28;19908;-76
2022/10/29 07:43:58;;;;;;;;;;;;;;;;;;5095385;28;20360;-75
2022/10/29 07:46:23;;;;;;;;;;;;;;;;;;5096724;28;20007;-75
2022/10/29 07:48:49;;;;;;;;;;;;;;;;;;5095224;28;19996;-75
2022/10/29 07:51:15;;;;;;;;;;;;;;;;;;5095849;28;20286;-76
2022/10/29 07:53:41;;;;;;;;;;;;;;;;;;5096107;28;19916;-79
2022/10/29 07:56:07;;;;;;;;;;;;;;;;;;5094680;28;19908;-76
2022/10/29 07:58:33;;;;;;;;;;;;;;;;;;5098022;28;19915;-76
2022/10/29 08:00:59;;;;;;;;;;;;;;;;;;5096267;28;19935;-76
2022/10/29 08:03:25;;;;;;;;;;;;;;;;;;5095990;28;20483;-75
2022/10/29 08:05:51;;;;;;;;;;;;;;;;;;5095870;28;19947;-76
2022/10/29 08:08:17;;;;;;;;;;;;;;;;;;5096540;28;19947;-76
2022/10/29 08:10:43;;;;;;;;;;;;;;;;;;5095262;28;20391;-76
2022/10/29 08:13:09;;;;;;;;;;;;;;;;;;5096823;28;19912;-75
2022/10/29 08:15:35;;;;;;;;;;;;;;;;;;5095984;22;20424;-78
2022/10/29 08:18:02;;;;;;;;;;;;;;;;;;5071720;28;19944;-78
2022/10/29 08:20:28;;;;;;;;;;;;;;;;;;5072138;28;19959;-78
2022/10/29 08:22:54;;;;;;;;;;;;;;;;;;5057440;28;19908;-81
2022/10/29 08:25:20;;;;;;;;;;;;;;;;;;5063730;28;20010;-77
2022/10/29 08:27:46;;;;;;;;;;;;;;;;;;5036405;28;19920;-77
2022/10/29 08:30:11;;;;;;;;;;;;;;;;;;5036621;28;19954;-78
2022/10/29 08:32:37;;;;;;;;;;;;;;;;;;5034856;28;19909;-78
2022/10/29 08:35:03;;;;;;;;;;;;;;;;;;5036507;28;19956;-77
2022/10/29 08:37:29;;;;;;;;;;;;;;;;;;5035000;28;19939;-78
2022/10/29 08:39:55;;;;;;;;;;;;;;;;;;5036874;28;19917;-76
2022/10/29 08:42:21;;;;;;;;;;;;;;;;;;5035314;28;19909;-78
2022/10/29 08:44:47;;;;;;;;;;;;;;;;;;5036262;28;19955;-77
2022/10/29 08:47:13;;;;;;;;;;;;;;;;;;5036578;28;19954;-78
2022/10/29 08:49:40;;;;;;;;;;;;;;;;;;5035395;28;19916;-77
2022/10/29 08:52:06;;;;;;;;;;;;;;;;;;5036694;28;19966;-79
2022/10/29 08:54:32;;;;;;;;;;;;;;;;;;5044905;28;19917;-79
2022/10/29 08:56:58;;;;;;;;;;;;;;;;;;5056936;28;19909;-77
2022/10/29 08:59:24;;;;;;;;;;;;;;;;;;5055024;28;19908;-78
2022/10/29 09:01:50;;;;;;;;;;;;;;;;;;5056171;28;20031;-77
2022/10/29 09:04:15;;;;;;;;;;;;;;;;;;5055678;28;20314;-77
2022/10/29 09:06:41;;;;;;;;;;;;;;;;;;5054097;28;19909;-76
2022/10/29 09:09:07;;;;;;;;;;;;;;;;;;5055567;28;19904;-77
2022/10/29 09:11:33;;;;;;;;;;;;;;;;;;5055241;28;20007;-78
2022/10/29 09:13:59;;;;;;;;;;;;;;;;;;5054497;28;19912;-78
2022/10/29 09:16:25;;;;;;;;;;;;;;;;;;5054477;28;19917;-77
2022/10/29 09:18:51;;;;;;;;;;;;;;;;;;5055787;28;19916;-80
2022/10/29 09:21:17;;;;;;;;;;;;;;;;;;5055693;28;19908;-79
2022/10/29 09:23:43;;;;;;;;;;;;;;;;;;5055767;28;19909;-78
2022/10/29 09:26:08;;;;;;;;;;;;;;;;;;5056564;28;19915;-78
2022/10/29 09:28:34;;;;;;;;;;;;;;;;;;5056166;28;19963;-79
2022/10/29 09:31:00;;;;;;;;;;;;;;;;;;5055347;28;19915;-78
2022/10/29 09:33:26;;;;;;;;;;;;;;;;;;5056703;28;19923;-79
2022/10/29 09:35:52;;;;;;;;;;;;;;;;;;5055183;28;19966;-78
2022/10/29 09:38:18;;;;;;;;;;;;;;;;;;5054681;28;19954;-78
2022/10/29 09:40:44;;;;;;;;;;;;;;;;;;5056422;28;20320;-79
2022/10/29 09:43:10;;;;;;;;;;;;;;;;;;5056638;28;19908;-79
2022/10/29 09:45:36;;;;;;;;;;;;;;;;;;5056175;28;19913;-79
2022/10/29 09:48:01;;;;;;;;;;;;;;;;;;5055229;28;19924;-79
2022/10/29 09:50:27;;;;;;;;;;;;;;;;;;5054505;28;20000;-77
2022/10/29 09:52:53;;;;;;;;;;;;;;;;;;5053707;28;19909;-79
2022/10/29 09:55:19;;;;;;;;;;;;;;;;;;5055466;28;20373;-79
2022/10/29 09:57:45;;;;;;;;;;;;;;;;;;5055858;28;20004;-79
2022/10/29 10:00:11;;;;;;;;;;;;;;;;;;5055967;28;19954;-79
2022/10/29 10:02:37;;;;;;;;;;;;;;;;;;5055961;28;19909;-78
2022/10/29 10:05:03;;;;;;;;;;;;;;;;;;5056418;28;20246;-79
2022/10/29 10:07:29;;;;;;;;;;;;;;;;;;5054146;28;19916;-79
2022/10/29 10:09:55;;;;;;;;;;;;;;;;;;5055980;28;19909;-78
2022/10/29 10:12:21;;;;;;;;;;;;;;;;;;5054975;28;19963;-79
2022/10/29 10:14:47;;;;;;;;;;;;;;;;;;5055217;28;20365;-79
2022/10/29 10:17:13;;;;;;;;;;;;;;;;;;5055419;28;19909;-79
2022/10/29 10:19:38;;;;;;;;;;;;;;;;;;5055677;28;19916;-78
2022/10/29 10:22:04;;;;;;;;;;;;;;;;;;5054387;28;20336;-78
2022/10/29 10:24:30;;;;;;;;;;;;;;;;;;5055623;28;19908;-77
2022/10/29 10:26:56;;;;;;;;;;;;;;;;;;5054195;28;20436;-79
2022/10/29 10:29:22;;;;;;;;;;;;;;;;;;5054165;28;19951;-79
2022/10/29 10:31:48;;;;;;;;;;;;;;;;;;5055467;28;19931;-79
2022/10/29 10:34:14;;;;;;;;;;;;;;;;;;5053987;28;19920;-78
2022/10/29 10:36:40;;;;;;;;;;;;;;;;;;5054945;28;20400;-78
2022/10/29 10:39:06;;;;;;;;;;;;;;;;;;5054114;28;20058;-78
2022/10/29 10:41:32;;;;;;;;;;;;;;;;;;5053980;28;19967;-79
2022/10/29 10:43:59;;;;;;;;;;;;;;;;;;5053643;28;20353;-79
2022/10/29 10:46:25;;;;;;;;;;;;;;;;;;5054542;28;19931;-79
2022/10/29 10:48:51;;;;;;;;;;;;;;;;;;5055088;28;20393;-78
2022/10/29 10:51:16;;;;;;;;;;;;;;;;;;5053856;28;19908;-78
2022/10/29 10:53:42;;;;;;;;;;;;;;;;;;5053461;28;20360;-78
2022/10/29 10:56:08;;;;;;;;;;;;;;;;;;5055239;28;19919;-78
2022/10/29 10:58:34;;;;;;;;;;;;;;;;;;5053407;28;20331;-79
2022/10/29 11:01:00;;;;;;;;;;;;;;;;;;5055838;28;19908;-78
2022/10/29 11:03:26;;;;;;;;;;;;;;;;;;5055962;28;19983;-79
2022/10/29 11:05:52;;;;;;;;;;;;;;;;;;5059152;28;19952;-78
2022/10/29 11:08:17;;;;;;;;;;;;;;;;;;5058918;28;19909;-77
2022/10/29 11:10:43;;;;;;;;;;;;;;;;;;5053355;28;19912;-78
2022/10/29 11:13:09;;;;;;;;;;;;;;;;;;5052675;28;19936;-78
2022/10/29 11:15:35;;;;;;;;;;;;;;;;;;5052580;28;19943;-79
2022/10/29 11:18:01;;;;;;;;;;;;;;;;;;5052764;28;19913;-78
2022/10/29 11:20:27;;;;;;;;;;;;;;;;;;5052412;28;20304;-78
2022/10/29 11:22:53;;;;;;;;;;;;;;;;;;5054521;28;19909;-79
2022/10/29 11:25:19;;;;;;;;;;;;;;;;;;5054125;28;19952;-78
2022/10/29 11:27:45;;;;;;;;;;;;;;;;;;5054208;28;19909;-78
2022/10/29 11:30:11;;;;;;;;;;;;;;;;;;5053515;28;20403;-79
2022/10/29 11:32:36;;;;;;;;;;;;;;;;;;5053175;28;20007;-78
2022/10/29 11:35:03;;;;;;;;;;;;;;;;;;5053154;28;20280;-78
2022/10/29 11:37:29;;;;;;;;;;;;;;;;;;5053964;28;19931;-79
2022/10/29 11:39:54;;;;;;;;;;;;;;;;;;5054450;28;19956;-80
2022/10/29 11:42:20;;;;;;;;;;;;;;;;;;5054674;28;19940;-79
2022/10/29 11:44:46;;;;;;;;;;;;;;;;;;5053973;28;19909;-79
2022/10/29 11:47:12;;;;;;;;;;;;;;;;;;5053558;28;19980;-79
2022/10/29 11:49:38;;;;;;;;;;;;;;;;;;5052652;28;19908;-78
2022/10/29 11:52:04;;;;;;;;;;;;;;;;;;5052491;28;20368;-77
2022/10/29 11:54:30;;;;;;;;;;;;;;;;;;5051527;28;19967;-78
2022/10/29 11:56:56;;;;;;;;;;;;;;;;;;5051488;28;19913;-77
2022/10/29 11:59:22;;;;;;;;;;;;;;;;;;5051893;28;20373;-76
2022/10/29 12:01:48;;;;;;;;;;;;;;;;;;5053651;28;19932;-77
2022/10/29 12:04:13;;;;;;;;;;;;;;;;;;5053666;28;19909;-78
2022/10/29 12:06:39;;;;;;;;;;;;;;;;;;5053155;28;19909;-78
2022/10/29 12:09:05;;;;;;;;;;;;;;;;;;5053467;28;19912;-78
2022/10/29 12:11:31;;;;;;;;;;;;;;;;;;5051760;28;20372;-78
2022/10/29 12:13:57;;;;;;;;;;;;;;;;;;5052171;28;19912;-79
2022/10/29 12:16:23;;;;;;;;;;;;;;;;;;5053211;28;19924;-79
2022/10/29 12:18:49;;;;;;;;;;;;;;;;;;5054203;28;19908;-76
2022/10/29 12:21:15;;;;;;;;;;;;;;;;;;5053894;28;20377;-76
2022/10/29 12:23:41;;;;;;;;;;;;;;;;;;5055853;28;19963;-78
2022/10/29 12:26:07;;;;;;;;;;;;;;;;;;5056117;28;20388;-77
2022/10/29 12:28:32;;;;;;;;;;;;;;;;;;5055326;28;20003;-76
2022/10/29 12:30:58;;;;;;;;;;;;;;;;;;5055362;28;19909;-76
2022/10/29 12:33:24;;;;;;;;;;;;;;;;;;5054032;28;20428;-77
2022/10/29 12:35:50;;;;;;;;;;;;;;;;;;5053828;28;19920;-77
2022/10/29 12:38:16;;;;;;;;;;;;;;;;;;5055219;28;19999;-77
2022/10/29 12:40:43;;;;;;;;;;;;;;;;;;5053980;28;20000;-76
2022/10/29 12:43:09;;;;;;;;;;;;;;;;;;5055161;28;20046;-77
2022/10/29 12:45:34;;;;;;;;;;;;;;;;;;5053798;28;19958;-77
2022/10/29 12:48:01;;;;;;;;;;;;;;;;;;5053631;28;19905;-77
2022/10/29 12:50:27;;;;;;;;;;;;;;;;;;5055072;28;19915;-77
2022/10/29 12:52:53;;;;;;;;;;;;;;;;;;5055086;28;19995;-77
2022/10/29 12:55:19;;;;;;;;;;;;;;;;;;5053609;28;19909;-77
2022/10/29 12:57:45;;;;;;;;;;;;;;;;;;5055190;28;19908;-78
2022/10/29 13:00:10;;;;;;;;;;;;;;;;;;5057193;28;19915;-78
2022/10/29 13:02:36;;;;;;;;;;;;;;;;;;5057999;28;19916;-79
2022/10/29 13:05:02;;;;;;;;;;;;;;;;;;5057673;28;19909;-79
2022/10/29 13:07:28;;;;;;;;;;;;;;;;;;5057511;28;19909;-79
2022/10/29 13:09:54;;;;;;;;;;;;;;;;;;5055688;28;19961;-79
2022/10/29 13:12:20;;;;;;;;;;;;;;;;;;5056130;28;19962;-79
2022/10/29 13:14:46;;;;;;;;;;;;;;;;;;5056309;28;20019;-79
2022/10/29 13:17:12;;;;;;;;;;;;;;;;;;5056575;28;19909;-78
2022/10/29 13:19:38;;;;;;;;;;;;;;;;;;5057119;28;19909;-79
2022/10/29 13:22:04;;;;;;;;;;;;;;;;;;5056236;28;19955;-79
2022/10/29 13:24:30;;;;;;;;;;;;;;;;;;5057030;28;19909;-79
2022/10/29 13:26:56;;;;;;;;;;;;;;;;;;5056751;28;19917;-79
2022/10/29 13:29:21;;;;;;;;;;;;;;;;;;5056091;28;19955;-79
2022/10/29 13:31:47;;;;;;;;;;;;;;;;;;5057383;28;19909;-79
2022/10/29 13:34:13;;;;;;;;;;;;;;;;;;5055486;28;20007;-79
2022/10/29 13:36:39;;;;;;;;;;;;;;;;;;5055162;28;20288;-79
2022/10/29 13:39:05;;;;;;;;;;;;;;;;;;5055840;28;19916;-78
2022/10/29 13:41:31;;;;;;;;;;;;;;;;;;5055682;28;20350;-79
2022/10/29 13:43:57;;;;;;;;;;;;;;;;;;5055844;28;20003;-80
2022/10/29 13:46:23;;;;;;;;;;;;;;;;;;5054930;28;19951;-79
2022/10/29 13:48:49;;;;;;;;;;;;;;;;;;5056864;28;19962;-79
2022/10/29 13:51:15;;;;;;;;;;;;;;;;;;5056041;28;20280;-79
2022/10/29 13:53:41;;;;;;;;;;;;;;;;;;5056149;28;19951;-79
2022/10/29 13:56:07;;;;;;;;;;;;;;;;;;5056102;28;20334;-78
2022/10/29 13:58:32;;;;;;;;;;;;;;;;;;5055278;28;19909;-78
2022/10/29 14:00:58;;;;;;;;;;;;;;;;;;5054893;28;19909;-79
2022/10/29 14:03:24;;;;;;;;;;;;;;;;;;5056507;28;20557;-79
2022/10/29 14:05:50;;;;;;;;;;;;;;;;;;5056522;28;19909;-79
2022/10/29 14:08:16;;;;;;;;;;;;;;;;;;5052892;28;20281;-80
2022/10/29 14:10:42;;;;;;;;;;;;;;;;;;5056029;28;20008;-80
2022/10/29 14:13:08;;;;;;;;;;;;;;;;;;5049680;28;20548;-79
2022/10/29 14:15:34;;;;;;;;;;;;;;;;;;5082694;22;19931;-79
2022/10/29 14:20:44;;;;;;;;;;;;;;;;;;5073887;28;19930;-80
2022/10/29 14:23:10;;;;;;;;;;;;;;;;;;5072496;28;20349;-78
2022/10/29 14:25:36;;;;;;;;;;;;;;;;;;5072321;28;19909;-79
2022/10/29 14:28:02;;;;;;;;;;;;;;;;;;5072394;28;20377;-79
2022/10/29 14:30:28;;;;;;;;;;;;;;;;;;5073321;28;19956;-77
2022/10/29 14:32:54;;;;;;;;;;;;;;;;;;5071782;28;19908;-78
2022/10/29 14:35:20;;;;;;;;;;;;;;;;;;5071402;28;19931;-77
2022/10/29 14:37:46;;;;;;;;;;;;;;;;;;5071822;28;19915;-77
2022/10/29 14:40:11;;;;;;;;;;;;;;;;;;5072876;28;20062;-76
2022/10/29 14:42:37;;;;;;;;;;;;;;;;;;5071882;28;20048;-76
2022/10/29 14:45:03;;;;;;;;;;;;;;;;;;5075355;28;19915;-77
2022/10/29 14:47:29;;;;;;;;;;;;;;;;;;5075726;28;19954;-77
2022/10/29 14:49:55;;;;;;;;;;;;;;;;;;5071130;28;19954;-76
2022/10/29 14:52:21;;;;;;;;;;;;;;;;;;5073274;28;20383;-77
2022/10/29 14:54:47;;;;;;;;;;;;;;;;;;5071133;28;19998;-77
2022/10/29 14:57:13;;;;;;;;;;;;;;;;;;5072042;28;20438;-77
2022/10/29 14:59:39;;;;;;;;;;;;;;;;;;5072747;28;19909;-76
2022/10/29 15:02:04;;;;;;;;;;;;;;;;;;5070708;28;19923;-76
2022/10/29 15:04:30;;;;;;;;;;;;;;;;;;5070767;28;19951;-78
2022/10/29 15:06:56;;;;;;;;;;;;;;;;;;5071363;28;19909;-76
2022/10/29 15:09:26;;;;;;;;;;;;;;;;;;5071709;28;19969;-77
2022/10/29 15:11:52;;;;;;;;;;;;;;;;;;5070830;28;19916;-77
2022/10/29 15:14:18;;;;;;;;;;;;;;;;;;5072470;28;19916;-77
2022/10/29 15:16:44;;;;;;;;;;;;;;;;;;5071156;28;19916;-77
2022/10/29 15:19:10;;;;;;;;;;;;;;;;;;5070753;28;19995;-76
2022/10/29 15:21:36;;;;;;;;;;;;;;;;;;5070796;28;20253;-77
2022/10/29 15:24:02;;;;;;;;;;;;;;;;;;5070878;28;19958;-77
2022/10/29 15:26:28;;;;;;;;;;;;;;;;;;5070659;28;19912;-78
2022/10/29 15:28:54;;;;;;;;;;;;;;;;;;5071532;28;19912;-76
2022/10/29 15:31:20;;;;;;;;;;;;;;;;;;5092127;28;19948;-78
2022/10/29 15:33:46;;;;;;;;;;;;;;;;;;5090775;28;19998;-77
2022/10/29 15:36:12;;;;;;;;;;;;;;;;;;5092229;28;20284;-77
2022/10/29 15:38:38;;;;;;;;;;;;;;;;;;5091724;28;19919;-77
2022/10/29 15:41:04;;;;;;;;;;;;;;;;;;5090025;28;19908;-77
2022/10/29 15:43:30;;;;;;;;;;;;;;;;;;5092323;28;19908;-78
2022/10/29 15:45:56;;;;;;;;;;;;;;;;;;5091694;28;19908;-77
2022/10/29 15:48:23;;;;;;;;;;;;;;;;;;5091046;28;20431;-84
2022/10/29 15:50:49;;;;;;;;;;;;;;;;;;5090934;28;19908;-77
2022/10/29 15:53:15;;;;;;;;;;;;;;;;;;5093151;28;19965;-85
2022/10/29 15:55:40;;;;;;;;;;;;;;;;;;5095623;28;19935;-77
2022/10/29 15:58:06;;;;;;;;;;;;;;;;;;5100976;28;20364;-77
2022/10/29 16:00:32;;;;;;;;;;;;;;;;;;5099249;28;19908;-79
2022/10/29 16:02:58;;;;;;;;;;;;;;;;;;5097871;28;19912;-80
2022/10/29 16:05:24;;;;;;;;;;;;;;;;;;5094393;28;19908;-80
2022/10/29 16:07:50;;;;;;;;;;;;;;;;;;5094734;28;19908;-78
2022/10/29 16:10:16;;;;;;;;;;;;;;;;;;5094219;28;19909;-78
2022/10/29 16:12:42;;;;;;;;;;;;;;;;;;5094752;28;19931;-79
2022/10/29 16:15:08;;;;;;;;;;;;;;;;;;5094039;28;20068;-79
2022/10/29 16:17:33;;;;;;;;;;;;;;;;;;5094172;28;19953;-78
2022/10/29 16:19:59;;;;;;;;;;;;;;;;;;5094126;28;20013;-77
2022/10/29 16:22:26;;;;;;;;;;;;;;;;;;5095862;28;19908;-78
2022/10/29 16:24:51;;;;;;;;;;;;;;;;;;5094235;28;19914;-79
2022/10/29 16:27:17;;;;;;;;;;;;;;;;;;5094133;28;20003;-78
2022/10/29 16:29:45;;;;;;;;;;;;;;;;;;5094540;28;19914;-78
2022/10/29 16:32:11;;;;;;;;;;;;;;;;;;5094461;28;19909;-79
2022/10/29 16:34:37;;;;;;;;;;;;;;;;;;5094024;28;19958;-80
2022/10/29 16:37:03;;;;;;;;;;;;;;;;;;5094021;28;20268;-79
2022/10/29 16:39:29;;;;;;;;;;;;;;;;;;5093796;28;20073;-79